Time;durP1;ratioP1;P1;durP2;ratioP2;P2;SDS_P1;SDS_P2;PMS_P1;PMS_P2;Temp;Humidity;BMP_temperature;BMP_pressure;BME280_temperature;BME280_humidity;BME280_pressure;Samples;Min_cycle;Max_cycle;Signal;HPM_P1;HPM_P2
2023/03/27 00:00:21;;;;;;;1.43;1.10;;;12.40;78.00;;;;;;6304719;22;20402;-68
2023/03/27 00:02:49;;;;;;;1.20;1.10;;;12.50;78.00;;;;;;6304207;22;20415;-67
2023/03/27 00:05:19;;;;;;;1.53;1.20;;;12.40;77.90;;;;;;6304592;22;20516;-68
2023/03/27 00:07:47;;;;;;;1.30;1.20;;;12.50;77.70;;;;;;6304587;22;20402;-67
2023/03/27 00:10:14;;;;;;;1.33;1.23;;;12.50;77.50;;;;;;6304643;22;20949;-67
2023/03/27 00:12:43;;;;;;;1.83;1.40;;;12.40;77.10;;;;;;6304650;22;20438;-69
2023/03/27 00:15:14;;;;;;;2.60;1.20;;;12.40;76.90;;;;;;6304039;22;20429;-68
2023/03/27 00:17:43;;;;;;;1.33;1.23;;;12.40;76.60;;;;;;6304176;22;20438;-68
2023/03/27 00:20:11;;;;;;;2.30;1.50;;;12.30;76.50;;;;;;6304356;22;20777;-67
2023/03/27 00:22:38;;;;;;;1.83;1.60;;;12.30;76.60;;;;;;6303918;22;20426;-68
2023/03/27 00:25:05;;;;;;;2.20;2.00;;;12.30;76.20;;;;;;6304140;22;20436;-67
2023/03/27 00:27:32;;;;;;;2.00;1.80;;;12.30;75.90;;;;;;6304377;22;20724;-67
2023/03/27 00:29:59;;;;;;;2.43;1.80;;;12.40;75.70;;;;;;6304156;22;20520;-67
2023/03/27 00:32:26;;;;;;;2.17;1.97;;;12.30;75.50;;;;;;6303954;22;20442;-67
2023/03/27 00:34:53;;;;;;;2.47;2.13;;;12.30;75.40;;;;;;6304151;22;20567;-67
2023/03/27 00:37:21;;;;;;;2.30;2.03;;;12.20;75.10;;;;;;6304389;22;20731;-67
2023/03/27 00:39:49;;;;;;;2.13;1.83;;;12.20;75.30;;;;;;6303960;22;20416;-67
2023/03/27 00:42:21;;;;;;;2.40;2.13;;;12.20;75.30;;;;;;6304472;22;20527;-67
2023/03/27 00:44:48;;;;;;;2.80;2.30;;;12.20;75.10;;;;;;6304169;22;20433;-67
2023/03/27 00:47:16;;;;;;;3.67;2.30;;;12.20;74.70;;;;;;6303948;22;20780;-66
2023/03/27 00:49:43;;;;;;;4.13;2.40;;;12.20;74.70;;;;;;6303993;22;20458;-68
2023/03/27 00:52:12;;;;;;;3.40;2.10;;;12.20;74.70;;;;;;6304102;22;20410;-68
2023/03/27 00:54:41;;;;;;;3.70;2.27;;;12.10;74.50;;;;;;6304015;22;20414;-67
2023/03/27 00:57:13;;;;;;;2.53;2.33;;;12.20;74.70;;;;;;6304167;22;20434;-67
2023/03/27 00:59:42;;;;;;;2.63;2.43;;;12.20;74.70;;;;;;6303755;22;20494;-67
2023/03/27 01:02:10;;;;;;;2.43;2.23;;;12.20;74.70;;;;;;6303964;22;20413;-68
2023/03/27 01:04:38;;;;;;;3.73;2.70;;;12.20;74.70;;;;;;6303748;22;20407;-68
2023/03/27 01:07:07;;;;;;;3.20;2.40;;;12.20;74.70;;;;;;6304142;22;20724;-68
2023/03/27 01:09:34;;;;;;;3.03;2.63;;;12.30;74.80;;;;;;6303391;22;20430;-67
2023/03/27 01:12:10;;;;;;;2.40;2.20;;;12.20;74.40;;;;;;6304291;22;20735;-67
2023/03/27 01:14:42;;;;;;;2.57;2.30;;;12.20;74.40;;;;;;6303371;22;21051;-67
2023/03/27 01:17:28;;;;;;;5.00;2.80;;;12.20;74.10;;;;;;6303823;22;20431;-69
2023/03/27 01:20:23;;;;;;;4.63;2.50;;;12.20;73.80;;;;;;6304123;22;20391;-68
2023/03/27 01:23:07;;;;;;;5.03;3.13;;;12.20;73.60;;;;;;6303891;22;20732;-66
2023/03/27 01:26:30;;;;;;;6.60;3.73;;;12.20;73.40;;;;;;6304356;22;20401;-67
2023/03/27 01:29:04;;;;;;;6.03;3.83;;;12.10;72.40;;;;;;6208915;23;20846;-67
2023/03/27 01:31:54;;;;;;;5.73;3.67;;;12.00;72.50;;;;;;6209176;23;20424;-67
2023/03/27 01:34:47;;;;;;;8.20;3.87;;;12.00;72.30;;;;;;6285473;22;20451;-66
2023/03/27 01:37:52;;;;;;;7.10;3.70;;;11.90;71.90;;;;;;6305172;22;20436;-67
2023/03/27 01:40:24;;;;;;;7.53;3.80;;;11.90;71.70;;;;;;6291167;22;20410;-67
2023/03/27 01:42:59;;;;;;;7.47;3.77;;;11.80;71.50;;;;;;6306408;22;20385;-67
2023/03/27 01:45:33;;;;;;;5.57;3.30;;;11.80;71.20;;;;;;6306241;22;20425;-66
2023/03/27 01:48:04;;;;;;;7.43;3.60;;;11.80;70.80;;;;;;6306208;22;20396;-66
2023/03/27 01:50:40;;;;;;;7.30;3.23;;;11.80;70.50;;;;;;6305447;22;20449;-66
2023/03/27 01:53:13;;;;;;;9.63;4.07;;;11.80;70.50;;;;;;6305871;22;20457;-66
2023/03/27 01:55:47;;;;;;;7.80;3.00;;;11.70;69.40;;;;;;6305951;22;20386;-67
2023/03/27 01:58:17;;;;;;;6.03;2.80;;;11.70;69.00;;;;;;6305155;22;20469;-68
2023/03/27 02:00:49;;;;;;;3.83;2.37;;;11.60;68.20;;;;;;6305618;22;20412;-66
2023/03/27 02:03:21;;;;;;;6.53;2.87;;;11.60;67.30;;;;;;6305478;22;20473;-66
2023/03/27 02:05:52;;;;;;;6.23;2.63;;;11.60;67.60;;;;;;6305819;22;20391;-68
2023/03/27 02:08:23;;;;;;;7.13;2.80;;;11.50;65.70;;;;;;6305569;22;20387;-67
2023/03/27 02:10:55;;;;;;;5.20;2.17;;;11.50;65.70;;;;;;6305669;22;20451;-67
2023/03/27 02:13:27;;;;;;;9.43;2.80;;;11.50;65.70;;;;;;6304798;22;20464;-67
2023/03/27 02:15:57;;;;;;;4.90;1.90;;;11.50;65.00;;;;;;6305594;22;20436;-66
2023/03/27 02:18:32;;;;;;;6.67;2.60;;;11.50;64.80;;;;;;6305475;22;20907;-66
2023/03/27 02:21:01;;;;;;;6.83;2.63;;;11.40;65.00;;;;;;6305544;22;20397;-66
2023/03/27 02:23:29;;;;;;;4.40;2.27;;;11.40;63.60;;;;;;6305606;22;20438;-67
2023/03/27 02:25:58;;;;;;;4.23;2.30;;;11.40;63.00;;;;;;6305713;22;20409;-66
2023/03/27 02:28:40;;;;;;;4.47;1.83;;;11.40;62.50;;;;;;6305242;22;20408;-66
2023/03/27 02:31:28;;;;;;;5.20;2.17;;;11.40;62.30;;;;;;6305481;22;20468;-67
2023/03/27 02:34:13;;;;;;;5.57;2.30;;;11.40;62.30;;;;;;6305246;22;20423;-66
2023/03/27 02:36:52;;;;;;;6.67;2.23;;;11.30;62.10;;;;;;6305889;22;20386;-66
2023/03/27 02:39:25;;;;;;;10.50;2.20;;;11.30;60.80;;;;;;6305295;22;20430;-68
2023/03/27 02:42:01;;;;;;;5.43;2.20;;;11.30;60.30;;;;;;6305030;22;20850;-65
2023/03/27 02:44:35;;;;;;;2.23;1.50;;;11.30;60.60;;;;;;6305471;22;20441;-66
2023/03/27 02:47:07;;;;;;;7.13;2.03;;;11.30;59.50;;;;;;6304811;22;20430;-66
2023/03/27 02:49:39;;;;;;;6.00;2.47;;;11.20;58.50;;;;;;6305262;22;20394;-66
2023/03/27 02:52:10;;;;;;;6.43;2.30;;;11.20;58.70;;;;;;6305520;22;20393;-66
2023/03/27 02:54:42;;;;;;;5.43;1.80;;;11.20;58.40;;;;;;6305207;22;20428;-66
2023/03/27 02:57:15;;;;;;;8.40;2.23;;;11.10;58.40;;;;;;6304786;22;20863;-66
2023/03/27 02:59:45;;;;;;;7.03;1.90;;;11.10;57.90;;;;;;6305340;22;20430;-66
2023/03/27 03:02:18;;;;;;;4.20;1.80;;;11.10;58.00;;;;;;6305087;22;20402;-66
2023/03/27 03:04:55;;;;;;;5.20;2.27;;;11.00;57.40;;;;;;6304905;22;20390;-66
2023/03/27 03:07:25;;;;;;;6.00;2.07;;;10.90;57.10;;;;;;6253342;22;20438;-66
2023/03/27 03:09:52;;;;;;;6.00;2.13;;;10.90;56.30;;;;;;6304987;22;20755;-67
2023/03/27 03:12:21;;;;;;;6.53;2.00;;;10.80;56.80;;;;;;6304152;22;20984;-66
2023/03/27 03:14:49;;;;;;;6.73;2.17;;;10.70;56.60;;;;;;6304772;22;20477;-66
2023/03/27 03:17:16;;;;;;;7.87;1.87;;;10.70;56.60;;;;;;6305019;22;20390;-65
2023/03/27 03:19:43;;;;;;;6.73;1.63;;;10.60;56.10;;;;;;6304814;22;20406;-66
2023/03/27 03:22:10;;;;;;;5.40;1.70;;;10.60;56.30;;;;;;6305113;22;20820;-67
2023/03/27 03:24:40;;;;;;;4.37;2.10;;;10.60;56.00;;;;;;6304587;22;20493;-65
2023/03/27 03:27:07;;;;;;;7.77;1.97;;;10.70;55.80;;;;;;6305132;22;20414;-66
2023/03/27 03:29:36;;;;;;;4.97;1.70;;;10.70;54.90;;;;;;6304683;22;20434;-66
2023/03/27 03:32:04;;;;;;;5.70;2.13;;;10.60;54.10;;;;;;6305305;22;20391;-65
2023/03/27 03:34:32;;;;;;;4.13;1.87;;;10.50;53.80;;;;;;6304483;22;20448;-66
2023/03/27 03:36:59;;;;;;;7.57;1.70;;;10.40;53.80;;;;;;6304764;22;20444;-66
2023/03/27 03:39:26;;;;;;;5.60;1.90;;;10.30;53.80;;;;;;6304324;22;20628;-66
2023/03/27 03:41:52;;;;;;;8.60;2.07;;;10.30;53.80;;;;;;6305080;22;20924;-66
2023/03/27 03:44:19;;;;;;;6.17;1.77;;;10.20;53.20;;;;;;6304078;22;20494;-66
2023/03/27 03:46:48;;;;;;;4.87;1.53;;;10.10;53.60;;;;;;6305418;22;20395;-65
2023/03/27 03:49:14;;;;;;;5.00;1.70;;;10.10;54.00;;;;;;6304338;22;20413;-65
2023/03/27 03:51:41;;;;;;;5.57;1.80;;;10.10;54.30;;;;;;6304906;22;20469;-66
2023/03/27 03:54:08;;;;;;;4.80;1.70;;;10.10;54.30;;;;;;6303993;22;20975;-66
2023/03/27 03:56:36;;;;;;;5.83;1.70;;;10.00;53.50;;;;;;6304937;22;20464;-66
2023/03/27 03:59:03;;;;;;;4.23;1.60;;;10.00;54.20;;;;;;6304693;22;20430;-66
2023/03/27 04:01:30;;;;;;;6.73;1.97;;;10.10;53.60;;;;;;6304634;22;20492;-66
2023/03/27 04:03:58;;;;;;;4.07;1.73;;;10.00;53.80;;;;;;6304585;22;20478;-66
2023/03/27 04:06:25;;;;;;;5.37;1.60;;;10.00;53.80;;;;;;6304881;22;20426;-65
2023/03/27 04:08:53;;;;;;;7.37;2.10;;;10.10;54.10;;;;;;6304386;22;20695;-65
2023/03/27 04:11:20;;;;;;;6.47;2.00;;;10.10;53.60;;;;;;6303990;22;20969;-65
2023/03/27 04:13:47;;;;;;;4.83;1.80;;;10.00;54.10;;;;;;6303881;22;20518;-65
2023/03/27 04:16:14;;;;;;;6.80;1.70;;;10.00;53.50;;;;;;6305236;22;20446;-66
2023/03/27 04:18:41;;;;;;;6.13;1.60;;;10.10;53.60;;;;;;6304663;22;20493;-65
2023/03/27 04:21:13;;;;;;;5.57;1.40;;;10.00;53.50;;;;;;6304540;22;20454;-65
2023/03/27 04:23:40;;;;;;;5.83;1.90;;;10.00;53.90;;;;;;6303845;22;20866;-65
2023/03/27 04:26:07;;;;;;;4.10;2.00;;;9.90;55.20;;;;;;6304397;22;20416;-65
2023/03/27 04:28:34;;;;;;;6.93;2.27;;;9.90;55.20;;;;;;6304455;22;20430;-65
2023/03/27 04:31:05;;;;;;;5.97;2.43;;;9.90;55.30;;;;;;6303589;22;20430;-65
2023/03/27 04:33:45;;;;;;;8.00;2.00;;;9.90;55.30;;;;;;6304238;22;20397;-66
2023/03/27 04:36:14;;;;;;;3.23;1.97;;;9.80;55.50;;;;;;6303937;22;20504;-65
2023/03/27 04:38:41;;;;;;;4.57;2.20;;;9.80;55.80;;;;;;6303844;22;20969;-65
2023/03/27 04:41:14;;;;;;;4.57;2.00;;;9.80;56.10;;;;;;6304244;22;20406;-65
2023/03/27 04:43:41;;;;;;;6.33;2.63;;;9.70;56.10;;;;;;6303668;22;20505;-65
2023/03/27 04:46:13;;;;;;;7.63;2.10;;;9.70;56.10;;;;;;6304197;22;21035;-65
2023/03/27 04:48:41;;;;;;;5.90;2.07;;;9.70;56.10;;;;;;6304307;22;20406;-65
2023/03/27 04:51:15;;;;;;;7.67;1.87;;;9.70;56.10;;;;;;6303869;22;20483;-65
2023/03/27 04:53:42;;;;;;;6.87;1.97;;;9.60;56.00;;;;;;6303899;22;20448;-65
2023/03/27 04:56:11;;;;;;;5.20;1.70;;;9.60;56.10;;;;;;6304048;22;20980;-65
2023/03/27 04:58:40;;;;;;;4.77;1.57;;;9.60;56.00;;;;;;6304304;22;20493;-65
2023/03/27 05:01:07;;;;;;;5.70;2.27;;;9.60;56.10;;;;;;6303965;22;20974;-66
2023/03/27 05:03:34;;;;;;;4.23;1.80;;;9.70;56.20;;;;;;6303897;22;21010;-66
2023/03/27 05:06:02;;;;;;;8.07;1.93;;;9.70;56.00;;;;;;6303821;22;20906;-65
2023/03/27 05:08:31;;;;;;;6.00;2.30;;;9.70;55.90;;;;;;6304025;22;20483;-65
2023/03/27 05:11:00;;;;;;;6.03;2.20;;;9.70;55.80;;;;;;6304578;22;20410;-64
2023/03/27 05:13:27;;;;;;;3.20;1.77;;;9.70;55.20;;;;;;6306369;22;20411;-65
2023/03/27 05:15:54;;;;;;;4.93;2.10;;;9.60;55.20;;;;;;6305754;22;20761;-65
2023/03/27 05:18:21;;;;;;;6.33;1.60;;;9.60;55.10;;;;;;6306347;22;20409;-65
2023/03/27 05:20:49;;;;;;;5.80;1.80;;;9.60;55.20;;;;;;6305581;22;20481;-65
2023/03/27 05:23:16;;;;;;;4.00;2.10;;;9.60;55.20;;;;;;6306191;22;20406;-65
2023/03/27 05:25:45;;;;;;;3.17;2.00;;;9.70;55.30;;;;;;6305996;22;20402;-65
2023/03/27 05:28:14;;;;;;;3.50;1.80;;;9.70;55.60;;;;;;6306197;22;20406;-65
2023/03/27 05:30:42;;;;;;;4.53;1.80;;;9.70;55.50;;;;;;6305881;22;20434;-65
2023/03/27 05:33:12;;;;;;;5.77;2.17;;;9.70;55.40;;;;;;6306271;22;20451;-65
2023/03/27 05:35:40;;;;;;;4.27;1.63;;;9.60;55.10;;;;;;6305856;22;20787;-66
2023/03/27 05:38:08;;;;;;;7.10;1.93;;;9.60;55.20;;;;;;6305695;22;20413;-65
2023/03/27 05:40:41;;;;;;;5.67;1.80;;;9.60;55.20;;;;;;6305569;22;20428;-65
2023/03/27 05:43:09;;;;;;;6.67;2.00;;;9.60;54.70;;;;;;6306159;22;20415;-65
2023/03/27 05:45:38;;;;;;;3.40;1.83;;;9.60;55.00;;;;;;6303743;22;20418;-65
2023/03/27 05:48:05;;;;;;;6.90;2.10;;;9.60;55.30;;;;;;6305776;22;20908;-65
2023/03/27 05:50:40;;;;;;;3.37;1.50;;;9.60;55.20;;;;;;6305120;22;20426;-65
2023/03/27 05:53:10;;;;;;;6.40;2.10;;;9.60;55.30;;;;;;6305810;22;20420;-65
2023/03/27 05:55:39;;;;;;;5.17;1.67;;;9.60;55.10;;;;;;6302598;22;20499;-65
2023/03/27 05:58:08;;;;;;;4.50;1.80;;;9.70;55.00;;;;;;6306100;22;20491;-65
2023/03/27 06:00:40;;;;;;;5.33;1.70;;;9.70;54.90;;;;;;6306307;22;20844;-65
2023/03/27 06:03:08;;;;;;;5.17;1.80;;;9.70;55.00;;;;;;6306463;22;21044;-65
2023/03/27 06:05:42;;;;;;;5.00;1.60;;;9.60;54.10;;;;;;6305532;22;20637;-65
2023/03/27 06:08:10;;;;;;;4.30;2.10;;;9.60;54.40;;;;;;6306564;22;20463;-66
2023/03/27 06:10:42;;;;;;;4.57;1.70;;;9.60;54.70;;;;;;6304340;22;20430;-64
2023/03/27 06:13:17;;;;;;;5.23;1.80;;;9.60;55.00;;;;;;6305871;22;20397;-65
2023/03/27 06:15:45;;;;;;;6.27;1.80;;;9.70;55.20;;;;;;6306006;22;20449;-65
2023/03/27 06:18:15;;;;;;;8.00;1.97;;;9.80;54.40;;;;;;6305986;22;20987;-65
2023/03/27 06:20:42;;;;;;;4.87;1.90;;;9.80;54.20;;;;;;6305548;22;20481;-65
2023/03/27 06:23:09;;;;;;;4.23;2.00;;;9.90;54.20;;;;;;6306022;22;20412;-65
2023/03/27 06:25:42;;;;;;;5.30;2.00;;;9.90;53.90;;;;;;6306126;22;20399;-65
2023/03/27 06:28:11;;;;;;;7.77;1.73;;;9.90;54.00;;;;;;6305965;22;20945;-65
2023/03/27 06:30:39;;;;;;;6.13;1.93;;;9.90;54.30;;;;;;6304034;22;20438;-67
2023/03/27 06:33:07;;;;;;;4.20;1.90;;;9.90;53.70;;;;;;6305618;22;20411;-65
2023/03/27 06:35:42;;;;;;;7.77;1.90;;;9.90;53.60;;;;;;6305936;22;20529;-66
2023/03/27 06:38:09;;;;;;;6.20;1.60;;;9.90;53.70;;;;;;6305980;22;20520;-66
2023/03/27 06:40:42;;;;;;;4.80;1.70;;;9.90;54.10;;;;;;6305291;22;20715;-64
2023/03/27 06:43:09;;;;;;;3.73;2.07;;;9.90;53.80;;;;;;6305622;22;20770;-65
2023/03/27 06:45:43;;;;;;;6.90;1.87;;;10.00;53.50;;;;;;6305593;22;20466;-65
2023/03/27 06:48:18;;;;;;;7.50;1.93;;;10.00;52.90;;;;;;6304962;22;20489;-66
2023/03/27 06:50:47;;;;;;;4.77;1.80;;;10.10;53.40;;;;;;6305408;22;20426;-66
2023/03/27 06:53:17;;;;;;;5.70;2.10;;;10.10;52.40;;;;;;6304201;22;20410;-65
2023/03/27 06:55:45;;;;;;;7.47;2.03;;;9.90;53.30;;;;;;6305848;22;20935;-65
2023/03/27 06:58:18;;;;;;;4.60;1.57;;;9.90;52.90;;;;;;6306113;22;20426;-65
2023/03/27 07:00:47;;;;;;;7.57;2.27;;;10.00;52.80;;;;;;6307012;22;20843;-66
2023/03/27 07:03:20;;;;;;;5.23;1.73;;;10.00;52.50;;;;;;6304606;22;20419;-67
2023/03/27 07:05:47;;;;;;;6.77;1.80;;;10.10;52.40;;;;;;6306894;22;20467;-66
2023/03/27 07:08:17;;;;;;;3.73;1.70;;;10.10;52.60;;;;;;6304659;22;20422;-66
2023/03/27 07:10:44;;;;;;;6.83;2.00;;;10.20;52.90;;;;;;6306838;22;20731;-66
2023/03/27 07:13:11;;;;;;;4.50;1.53;;;10.30;52.30;;;;;;6306718;22;20399;-66
2023/03/27 07:15:41;;;;;;;5.50;1.90;;;10.30;52.00;;;;;;6305104;22;20503;-67
2023/03/27 07:18:09;;;;;;;8.07;2.43;;;10.30;51.70;;;;;;6306572;22;20434;-65
2023/03/27 07:20:41;;;;;;;7.87;2.13;;;10.40;52.20;;;;;;6307068;22;20512;-66
2023/03/27 07:23:08;;;;;;;6.53;1.80;;;10.40;52.00;;;;;;6306680;22;20437;-66
2023/03/27 07:25:41;;;;;;;5.27;1.80;;;10.50;51.60;;;;;;6306277;22;20485;-67
2023/03/27 07:28:11;;;;;;;6.10;1.40;;;10.50;52.00;;;;;;6307033;22;20397;-66
2023/03/27 07:30:40;;;;;;;6.27;2.27;;;10.50;51.70;;;;;;6304962;22;20441;-67
2023/03/27 07:33:08;;;;;;;6.37;2.00;;;10.50;51.70;;;;;;6306038;22;20391;-67
2023/03/27 07:35:35;;;;;;;3.47;1.80;;;10.60;51.60;;;;;;6306154;22;20449;-66
2023/03/27 07:38:06;;;;;;;4.83;2.00;;;10.60;52.00;;;;;;6303325;22;20989;-67
2023/03/27 07:40:34;;;;;;;5.47;1.90;;;10.70;52.10;;;;;;6305179;22;20414;-67
2023/03/27 07:43:05;;;;;;;9.57;2.10;;;10.70;51.00;;;;;;6303815;22;20406;-67
2023/03/27 07:45:34;;;;;;;3.80;1.87;;;10.80;50.60;;;;;;6304858;22;20431;-66
2023/03/27 07:48:08;;;;;;;8.13;2.43;;;10.90;51.00;;;;;;6304367;22;21050;-64
2023/03/27 07:50:41;;;;;;;4.73;1.77;;;11.00;51.00;;;;;;6304299;22;21076;-67
2023/03/27 07:53:10;;;;;;;5.33;1.80;;;11.00;50.60;;;;;;6305017;22;20456;-68
2023/03/27 07:55:40;;;;;;;7.00;2.40;;;11.00;50.00;;;;;;6304205;22;20442;-68
2023/03/27 07:58:08;;;;;;;7.07;2.10;;;11.00;49.80;;;;;;6305112;22;20412;-65
2023/03/27 08:00:35;;;;;;;4.93;1.90;;;11.10;50.30;;;;;;6303292;22;20514;-67
2023/03/27 08:03:06;;;;;;;7.60;2.20;;;11.30;50.20;;;;;;6304770;22;20453;-68
2023/03/27 08:05:35;;;;;;;4.20;2.17;;;11.40;50.20;;;;;;6302746;22;20426;-68
2023/03/27 08:08:13;;;;;;;3.77;1.53;;;11.40;49.40;;;;;;6305446;22;20460;-67
2023/03/27 08:10:40;;;;;;;5.90;1.83;;;11.40;48.70;;;;;;6304774;22;20440;-67
2023/03/27 08:13:07;;;;;;;3.33;1.77;;;11.50;48.90;;;;;;6304664;22;20402;-67
2023/03/27 08:15:34;;;;;;;5.03;1.97;;;11.50;48.20;;;;;;6303897;22;20450;-66
2023/03/27 08:18:01;;;;;;;8.13;3.30;;;11.40;48.60;;;;;;6304726;22;20406;-67
2023/03/27 08:20:29;;;;;;;6.63;2.80;;;11.40;49.00;;;;;;6304409;22;20446;-67
2023/03/27 08:22:55;;;;;;;6.20;3.57;;;11.50;49.20;;;;;;6304998;22;20483;-65
2023/03/27 08:25:28;;;;;;;7.53;4.57;;;11.60;49.10;;;;;;6304800;22;20485;-66
2023/03/27 08:27:55;;;;;;;8.53;3.60;;;11.70;49.00;;;;;;6304221;22;20465;-67
2023/03/27 08:30:22;;;;;;;6.87;2.00;;;11.80;49.40;;;;;;6303685;22;20428;-67
2023/03/27 08:32:49;;;;;;;5.17;1.80;;;11.90;48.90;;;;;;6304565;22;20413;-67
2023/03/27 08:35:17;;;;;;;6.40;1.90;;;12.00;47.90;;;;;;6305266;22;20430;-68
2023/03/27 08:37:44;;;;;;;4.10;1.60;;;12.10;48.40;;;;;;6305919;22;20495;-67
2023/03/27 08:40:18;;;;;;;4.23;1.67;;;12.10;48.40;;;;;;6304729;22;20441;-66
2023/03/27 08:42:52;;;;;;;4.73;2.20;;;12.10;47.50;;;;;;6305379;22;20465;-66
2023/03/27 08:45:23;;;;;;;5.00;1.87;;;12.20;47.30;;;;;;6304279;22;20469;-67
2023/03/27 08:47:56;;;;;;;6.10;1.90;;;12.30;47.80;;;;;;6305539;22;20466;-67
2023/03/27 08:50:32;;;;;;;3.77;2.00;;;12.40;47.30;;;;;;6304687;22;20391;-67
2023/03/27 08:53:01;;;;;;;4.07;1.63;;;12.50;47.30;;;;;;6304683;22;20429;-69
2023/03/27 08:55:38;;;;;;;3.93;2.00;;;12.50;47.90;;;;;;6305078;22;20445;-67
2023/03/27 08:58:17;;;;;;;3.57;1.60;;;12.50;47.00;;;;;;6304999;22;20414;-67
2023/03/27 09:00:46;;;;;;;3.03;1.47;;;12.50;46.80;;;;;;6305025;22;20386;-68
2023/03/27 09:03:21;;;;;;;4.67;1.87;;;12.50;47.30;;;;;;6304746;22;20905;-68
2023/03/27 09:05:53;;;;;;;3.43;1.77;;;12.60;47.40;;;;;;6304992;22;20448;-67
2023/03/27 09:08:31;;;;;;;3.97;1.63;;;12.80;47.70;;;;;;6304974;22;20450;-67
2023/03/27 09:11:03;;;;;;;4.73;1.80;;;12.90;46.30;;;;;;6305225;22;20393;-67
2023/03/27 09:13:37;;;;;;;4.20;1.80;;;13.00;46.40;;;;;;6304701;22;20397;-67
2023/03/27 09:16:10;;;;;;;3.50;1.47;;;13.10;46.30;;;;;;6304499;22;20448;-67
2023/03/27 09:18:44;;;;;;;7.87;2.03;;;13.20;45.60;;;;;;6305134;22;20509;-68
2023/03/27 09:21:14;;;;;;;3.40;1.80;;;13.30;44.30;;;;;;6304342;22;20394;-67
2023/03/27 09:23:44;;;;;;;3.60;1.80;;;13.30;42.70;;;;;;6305160;22;20482;-68
2023/03/27 09:26:13;;;;;;;5.60;1.77;;;13.40;43.80;;;;;;6304555;22;20423;-67
2023/03/27 09:28:49;;;;;;;4.33;1.67;;;13.50;43.60;;;;;;6304619;22;20493;-67
2023/03/27 09:31:23;;;;;;;2.67;1.37;;;13.50;43.60;;;;;;6304565;22;20426;-68
2023/03/27 09:33:51;;;;;;;3.57;1.70;;;13.30;42.10;;;;;;6305044;22;20391;-67
2023/03/27 09:36:18;;;;;;;5.83;1.63;;;13.30;42.10;;;;;;6304792;22;20487;-67
2023/03/27 09:38:49;;;;;;;4.70;1.50;;;13.30;41.90;;;;;;6304907;22;20510;-67
2023/03/27 09:41:20;;;;;;;3.33;1.70;;;13.30;41.70;;;;;;6305012;22;20477;-68
2023/03/27 09:43:56;;;;;;;4.67;1.67;;;13.30;41.30;;;;;;6304585;22;20390;-66
2023/03/27 09:46:25;;;;;;;4.30;1.50;;;13.30;41.20;;;;;;6305196;22;20440;-68
2023/03/27 09:48:58;;;;;;;3.87;1.43;;;13.50;42.80;;;;;;6304820;22;20944;-67
2023/03/27 09:51:41;;;;;;;5.10;1.60;;;13.60;42.50;;;;;;6304038;22;20430;-68
2023/03/27 09:54:11;;;;;;;3.57;1.70;;;13.70;41.90;;;;;;6304748;22;20438;-68
2023/03/27 09:56:40;;;;;;;4.40;1.60;;;13.80;42.20;;;;;;6306623;22;20422;-68
2023/03/27 09:59:24;;;;;;;4.53;1.87;;;13.90;42.60;;;;;;6307749;22;20473;-68
2023/03/27 10:01:54;;;;;;;4.73;1.70;;;14.20;43.20;;;;;;6307436;22;20430;-68
2023/03/27 10:04:23;;;;;;;3.03;1.30;;;14.40;42.70;;;;;;6307586;22;20493;-67
2023/03/27 10:06:58;;;;;;;3.67;1.40;;;14.60;41.40;;;;;;6307858;22;20426;-68
2023/03/27 10:09:27;;;;;;;3.37;1.70;;;14.80;41.80;;;;;;6307744;22;20430;-67
2023/03/27 10:12:03;;;;;;;5.13;1.47;;;14.90;41.00;;;;;;6306736;22;20459;-67
2023/03/27 10:14:34;;;;;;;3.23;1.53;;;15.00;40.80;;;;;;6307652;22;20748;-66
2023/03/27 10:17:03;;;;;;;5.07;1.97;;;15.00;40.60;;;;;;6307688;22;20448;-66
2023/03/27 10:19:35;;;;;;;4.53;1.80;;;15.00;40.80;;;;;;6307709;22;20434;-66
2023/03/27 10:22:13;;;;;;;3.70;1.43;;;15.00;41.10;;;;;;6307221;22;20434;-67
2023/03/27 10:24:40;;;;;;;6.17;1.73;;;15.00;41.00;;;;;;6306670;22;20417;-65
2023/03/27 10:27:10;;;;;;;8.03;1.90;;;15.00;41.10;;;;;;6306468;22;20422;-66
2023/03/27 10:29:39;;;;;;;3.77;1.97;;;14.90;40.40;;;;;;6306758;22;20762;-66
2023/03/27 10:32:06;;;;;;;4.43;1.40;;;14.90;40.80;;;;;;6306244;22;20501;-65
2023/03/27 10:34:36;;;;;;;3.80;1.50;;;14.90;42.20;;;;;;6305797;22;20489;-68
2023/03/27 10:37:26;;;;;;;2.57;1.23;;;15.00;42.20;;;;;;6307088;22;20446;-66
2023/03/27 10:39:55;;;;;;;5.97;1.80;;;15.00;41.20;;;;;;6305844;22;21059;-67
2023/03/27 10:42:22;;;;;;;4.77;1.53;;;14.90;40.00;;;;;;6306973;22;20401;-67
2023/03/27 10:44:53;;;;;;;4.80;1.77;;;15.00;40.80;;;;;;6306342;22;20408;-67
2023/03/27 10:47:23;;;;;;;3.60;1.40;;;15.00;40.80;;;;;;6306444;22;20461;-66
2023/03/27 10:50:01;;;;;;;3.67;1.53;;;15.20;40.90;;;;;;6306264;22;20406;-66
2023/03/27 10:52:36;;;;;;;4.70;1.50;;;15.30;40.50;;;;;;6306910;22;20386;-66
2023/03/27 10:55:17;;;;;;;3.90;1.90;;;15.40;40.00;;;;;;6305928;22;20474;-66
2023/03/27 10:57:47;;;;;;;3.30;1.60;;;15.30;38.50;;;;;;6307337;22;20385;-67
2023/03/27 11:00:21;;;;;;;5.47;1.53;;;15.30;39.40;;;;;;6306943;22;20436;-67
2023/03/27 11:02:51;;;;;;;6.00;1.57;;;15.20;39.70;;;;;;6306161;22;20409;-66
2023/03/27 11:05:23;;;;;;;3.73;1.33;;;15.20;39.40;;;;;;6306186;22;20442;-67
2023/03/27 11:07:56;;;;;;;4.97;1.33;;;15.20;39.20;;;;;;6305925;22;20473;-66
2023/03/27 11:10:26;;;;;;;2.83;1.50;;;15.20;38.90;;;;;;6305809;22;20455;-66
2023/03/27 11:12:58;;;;;;;7.57;1.40;;;15.10;38.30;;;;;;6305803;22;20945;-66
2023/03/27 11:15:30;;;;;;;5.17;2.13;;;15.00;37.90;;;;;;6305775;22;20501;-66
2023/03/27 11:18:02;;;;;;;2.77;1.70;;;14.90;39.20;;;;;;6306176;22;20461;-66
2023/03/27 11:20:35;;;;;;;4.27;1.50;;;14.90;38.20;;;;;;6305777;22;20387;-66
2023/03/27 11:23:06;;;;;;;3.13;1.40;;;14.50;38.10;;;;;;6305409;22;20412;-66
2023/03/27 11:25:40;;;;;;;3.43;1.37;;;14.50;39.00;;;;;;6305623;22;20437;-66
2023/03/27 11:28:17;;;;;;;2.20;1.37;;;14.70;39.60;;;;;;6305971;22;20398;-66
2023/03/27 11:30:51;;;;;;;3.50;1.47;;;14.90;39.40;;;;;;6305892;22;20449;-66
2023/03/27 11:33:32;;;;;;;2.27;1.13;;;15.10;40.90;;;;;;6305679;22;20448;-67
2023/03/27 11:36:09;;;;;;;4.93;1.57;;;15.50;40.10;;;;;;6305567;22;20426;-67
2023/03/27 11:38:41;;;;;;;1.73;1.00;;;15.80;40.90;;;;;;6306245;22;20453;-66
2023/03/27 11:41:11;;;;;;;4.30;1.90;;;16.00;39.40;;;;;;6306905;22;20415;-66
2023/03/27 11:43:39;;;;;;;2.13;1.33;;;16.00;37.20;;;;;;6306663;22;20449;-65
2023/03/27 11:46:20;;;;;;;3.30;1.30;;;15.40;36.50;;;;;;6306574;22;20859;-66
2023/03/27 11:49:04;;;;;;;2.47;1.30;;;14.70;37.60;;;;;;6306681;22;20395;-66
2023/03/27 11:51:45;;;;;;;3.53;1.40;;;14.40;38.10;;;;;;6306137;22;20453;-67
2023/03/27 11:54:26;;;;;;;3.57;1.70;;;13.90;38.50;;;;;;6306721;22;20707;-66
2023/03/27 11:56:54;;;;;;;2.37;1.37;;;13.60;39.00;;;;;;6306522;22;20565;-66
2023/03/27 11:59:46;;;;;;;1.73;1.10;;;13.70;40.60;;;;;;6306832;22;20394;-66
2023/03/27 12:02:51;;;;;;;3.23;1.30;;;14.00;40.00;;;;;;6306009;22;20391;-66
2023/03/27 12:05:23;;;;;;;2.87;1.20;;;14.00;38.90;;;;;;6306672;22;20397;-66
2023/03/27 12:08:00;;;;;;;3.50;1.40;;;14.00;39.50;;;;;;6305780;22;20379;-66
2023/03/27 12:10:31;;;;;;;3.80;1.40;;;14.00;39.40;;;;;;6306049;22;20437;-67
2023/03/27 12:13:43;;;;;;;3.17;1.43;;;14.10;40.50;;;;;;6306118;22;20382;-66
2023/03/27 12:16:31;;;;;;;3.20;1.30;;;14.40;40.80;;;;;;6305456;22;20767;-66
2023/03/27 12:19:14;;;;;;;4.00;1.63;;;14.50;39.80;;;;;;6306509;22;20394;-65
2023/03/27 12:21:57;;;;;;;3.97;1.50;;;14.10;38.90;;;;;;6305765;22;20749;-65
2023/03/27 12:24:40;;;;;;;3.50;1.80;;;14.00;41.00;;;;;;6306415;22;20387;-66
2023/03/27 12:27:29;;;;;;;2.37;1.40;;;14.00;39.50;;;;;;6306360;22;20416;-66
2023/03/27 12:30:16;;;;;;;3.23;1.20;;;14.00;40.00;;;;;;6302183;22;20443;-67
2023/03/27 12:33:14;;;;;;;3.77;1.37;;;14.10;40.80;;;;;;6306667;22;20691;-66
2023/03/27 12:35:46;;;;;;;3.97;1.50;;;14.10;42.10;;;;;;6304829;22;20494;-65
2023/03/27 12:38:21;;;;;;;3.17;1.53;;;14.10;43.00;;;;;;6306591;22;20425;-65
2023/03/27 12:41:01;;;;;;;2.00;1.40;;;14.10;43.20;;;;;;6305926;22;20432;-66
2023/03/27 12:43:32;;;;;;;3.40;1.37;;;13.90;43.00;;;;;;6306542;22;20475;-66
2023/03/27 12:46:15;;;;;;;3.50;1.87;;;13.80;44.60;;;;;;6305717;22;20394;-66
2023/03/27 12:48:51;;;;;;;1.83;1.20;;;13.50;45.40;;;;;;6306372;22;20843;-66
2023/03/27 12:51:34;;;;;;;5.40;2.03;;;13.20;47.30;;;;;;6305670;22;20696;-66
2023/03/27 12:54:14;;;;;;;3.93;1.70;;;12.70;47.60;;;;;;6306078;22;20516;-66
2023/03/27 12:56:41;;;;;;;4.53;1.70;;;12.80;51.20;;;;;;6305663;22;20426;-67
2023/03/27 12:59:21;;;;;;;2.90;1.70;;;13.00;52.20;;;;;;6305629;22;20406;-67
2023/03/27 13:02:36;;;;;;;3.03;1.40;;;13.10;53.70;;;;;;6305983;22;20386;-66
2023/03/27 13:05:21;;;;;;;2.60;1.33;;;13.10;52.10;;;;;;6305354;22;20390;-66
2023/03/27 13:08:00;;;;;;;5.17;1.90;;;13.20;52.40;;;;;;6306053;22;20388;-67
2023/03/27 13:10:43;;;;;;;3.47;1.63;;;13.40;51.50;;;;;;6306137;22;20585;-66
2023/03/27 13:13:31;;;;;;;1.63;1.30;;;13.70;53.40;;;;;;6306065;22;20465;-66